Time;durP1;ratioP1;P1;durP2;ratioP2;P2;SDS_P1;SDS_P2;PMS_P1;PMS_P2;Temp;Humidity;BMP_temperature;BMP_pressure;BME280_temperature;BME280_humidity;BME280_pressure;Samples;Min_cycle;Max_cycle;Signal;HPM_P1;HPM_P2
2022/12/02 00:00:22;;;;;;;106.72;44.78;;;6.40;99.90;;;;;;5092043;28;20020;-65
2022/12/02 00:02:48;;;;;;;102.35;45.75;;;6.30;99.90;;;;;;5090845;28;20111;-65
2022/12/02 00:05:14;;;;;;;105.55;44.78;;;6.30;99.90;;;;;;5095808;28;20095;-65
2022/12/02 00:07:40;;;;;;;104.68;45.08;;;6.30;99.90;;;;;;5090971;28;20070;-65
2022/12/02 00:10:23;;;;;;;102.22;44.13;;;6.20;99.90;;;;;;5075506;28;20067;-65
2022/12/02 00:12:49;;;;;;;91.63;42.42;;;6.20;99.90;;;;;;5096128;28;20046;-66
2022/12/02 00:15:42;;;;;;;91.57;41.42;;;6.20;99.90;;;;;;5075234;28;20024;-66
2022/12/02 00:18:14;;;;;;;98.63;42.00;;;6.20;99.90;;;;;;5073279;28;20550;-65
2022/12/02 00:20:40;;;;;;;103.40;41.65;;;6.00;99.90;;;;;;5112163;28;20046;-65
2022/12/02 00:23:06;;;;;;;96.13;42.00;;;6.00;99.90;;;;;;5092982;28;20153;-65
2022/12/02 00:25:32;;;;;;;91.85;40.97;;;6.00;99.90;;;;;;5098679;28;20498;-65
2022/12/02 00:27:59;;;;;;;95.38;43.30;;;6.00;99.90;;;;;;5095056;28;20028;-65
2022/12/02 00:30:25;;;;;;;78.93;39.65;;;6.00;99.90;;;;;;5096593;28;20088;-65
2022/12/02 00:32:51;;;;;;;93.88;40.83;;;6.00;99.90;;;;;;5102453;28;20050;-65
2022/12/02 00:35:16;;;;;;;82.28;40.83;;;5.90;99.90;;;;;;5091961;28;20020;-65
2022/12/02 00:37:42;;;;;;;85.05;39.67;;;5.90;99.90;;;;;;5073320;28;20498;-65
2022/12/02 00:40:08;;;;;;;72.75;33.90;;;5.90;99.90;;;;;;5091791;28;20115;-65
2022/12/02 00:42:34;;;;;;;75.53;37.08;;;5.90;99.90;;;;;;5091410;28;20103;-65
2022/12/02 00:47:44;;;;;;;71.78;35.55;;;5.80;99.90;;;;;;5095203;28;20035;-65
2022/12/02 00:50:10;;;;;;;71.75;35.70;;;5.80;99.90;;;;;;5098666;28;20031;-65
2022/12/02 00:52:36;;;;;;;69.65;32.95;;;5.80;99.90;;;;;;5073030;28;20077;-65
2022/12/02 00:55:01;;;;;;;81.03;38.70;;;5.80;99.90;;;;;;5097086;28;20035;-65
2022/12/02 00:57:26;;;;;;;82.28;41.58;;;5.80;99.90;;;;;;5097000;28;20031;-66
2022/12/02 00:59:52;;;;;;;76.15;38.13;;;5.70;99.90;;;;;;5094441;28;20035;-65
2022/12/02 01:02:17;;;;;;;71.70;35.47;;;5.70;99.90;;;;;;5096132;28;20027;-65
2022/12/02 01:04:43;;;;;;;76.25;39.33;;;5.70;99.90;;;;;;5094909;28;20427;-65
2022/12/02 01:07:09;;;;;;;76.35;38.80;;;5.60;99.90;;;;;;5094731;28;20062;-65
2022/12/02 01:09:34;;;;;;;74.88;36.28;;;5.60;99.90;;;;;;5093972;28;20035;-65
2022/12/02 01:12:00;;;;;;;78.38;39.85;;;5.60;99.90;;;;;;5091027;28;20031;-65
2022/12/02 01:14:25;;;;;;;71.35;36.45;;;5.60;99.90;;;;;;5093992;28;20032;-65
2022/12/02 01:16:51;;;;;;;60.42;32.35;;;5.60;99.90;;;;;;5093357;28;20024;-65
2022/12/02 01:19:17;;;;;;;61.28;32.60;;;5.50;99.90;;;;;;5097773;28;20035;-65
2022/12/02 01:21:43;;;;;;;66.55;33.55;;;5.60;99.90;;;;;;5093187;28;20035;-65
2022/12/02 01:24:08;;;;;;;69.65;35.33;;;5.60;99.90;;;;;;5099142;28;20032;-65
2022/12/02 01:26:34;;;;;;;65.57;33.10;;;5.60;99.90;;;;;;5093592;28;20020;-65
2022/12/02 01:28:59;;;;;;;57.00;30.67;;;5.60;99.90;;;;;;5098420;28;20429;-65
2022/12/02 01:31:25;;;;;;;63.33;31.88;;;5.50;99.90;;;;;;5090570;28;20488;-65
2022/12/02 01:33:50;;;;;;;63.10;33.33;;;5.50;99.90;;;;;;5074405;28;20141;-65
2022/12/02 01:36:16;;;;;;;68.75;34.72;;;5.50;99.90;;;;;;5103704;27;20365;-65
2022/12/02 01:38:41;;;;;;;71.15;34.40;;;5.50;99.90;;;;;;5121085;27;20019;-65
2022/12/02 01:41:07;;;;;;;65.70;33.45;;;5.50;99.90;;;;;;5105944;27;20035;-65
2022/12/02 01:43:33;;;;;;;70.15;33.95;;;5.50;99.90;;;;;;5112637;27;20498;-65
2022/12/02 01:45:59;;;;;;;58.28;30.33;;;5.50;99.90;;;;;;5097569;28;20020;-65
2022/12/02 01:48:24;;;;;;;60.55;31.60;;;5.50;99.90;;;;;;5092899;28;20035;-65
2022/12/02 01:50:50;;;;;;;60.05;30.88;;;5.50;99.90;;;;;;5093704;28;20024;-65
2022/12/02 01:53:16;;;;;;;62.60;32.25;;;5.50;99.90;;;;;;5090680;28;20032;-65
2022/12/02 01:55:41;;;;;;;60.35;30.25;;;5.50;99.90;;;;;;5092967;28;20055;-65
2022/12/02 01:58:11;;;;;;;64.28;32.95;;;5.50;99.90;;;;;;5095664;28;20405;-65
2022/12/02 02:00:36;;;;;;;67.63;34.00;;;5.50;99.90;;;;;;5095264;28;20026;-65
2022/12/02 02:03:02;;;;;;;63.70;32.58;;;5.40;99.90;;;;;;5098260;28;20099;-65
2022/12/02 02:05:32;;;;;;;57.95;30.27;;;5.40;99.90;;;;;;5103337;27;20108;-65
2022/12/02 02:08:02;;;;;;;;;;;5.40;99.90;;;;;;5110442;27;20024;-65
2022/12/02 02:10:28;;;;;;;58.92;30.05;;;5.40;99.90;;;;;;5094222;27;19908;-65
2022/12/02 02:12:54;;;;;;;67.57;33.40;;;5.40;99.90;;;;;;5091254;28;20456;-65
2022/12/02 02:15:21;;;;;;;66.70;30.85;;;5.40;99.90;;;;;;5098490;27;20026;-65
2022/12/02 02:17:47;;;;;;;64.05;31.52;;;5.40;99.90;;;;;;5092273;28;20477;-65
2022/12/02 02:20:20;;;;;;;67.38;33.63;;;5.40;99.90;;;;;;5092230;28;20020;-65
2022/12/02 02:23:05;;;;;;;67.28;33.72;;;5.40;99.90;;;;;;5094903;27;20031;-65
2022/12/02 02:25:33;;;;;;;60.42;30.70;;;5.30;99.90;;;;;;5094872;28;20371;-65
2022/12/02 02:28:00;;;;;;;58.10;30.17;;;5.30;99.90;;;;;;5090113;28;20024;-65
2022/12/02 02:30:32;;;;;;;64.53;30.85;;;5.30;99.90;;;;;;5089407;28;20481;-65
2022/12/02 02:32:59;;;;;;;57.53;27.77;;;5.30;99.90;;;;;;5090820;28;20066;-65
2022/12/02 02:35:25;;;;;;;61.50;30.45;;;5.30;99.90;;;;;;5081156;28;20128;-65
2022/12/02 02:37:53;;;;;;;59.70;30.30;;;5.30;99.90;;;;;;5070636;28;20024;-65
2022/12/02 02:40:20;;;;;;;59.55;29.30;;;5.30;99.90;;;;;;5100402;27;20024;-65
2022/12/02 02:42:49;;;;;;;63.53;30.20;;;5.30;99.90;;;;;;5094905;28;20381;-65
2022/12/02 02:45:17;;;;;;;65.68;31.60;;;5.30;99.90;;;;;;5089159;28;20062;-65
2022/12/02 02:47:42;;;;;;;56.25;29.50;;;5.20;99.90;;;;;;5084760;28;20501;-65
2022/12/02 02:50:08;;;;;;;62.75;31.05;;;5.20;99.90;;;;;;5081595;28;20036;-65
2022/12/02 02:52:34;;;;;;;62.45;31.70;;;5.20;99.90;;;;;;5097439;28;20023;-65
2022/12/02 02:55:00;;;;;;;64.82;30.15;;;5.20;99.90;;;;;;5089082;28;20085;-65
2022/12/02 02:57:25;;;;;;;62.22;31.30;;;5.20;99.90;;;;;;5088845;28;20028;-65
2022/12/02 02:59:54;;;;;;;63.60;29.73;;;5.20;99.90;;;;;;5095524;28;20047;-65
2022/12/02 03:02:21;;;;;;;70.30;32.35;;;5.20;99.90;;;;;;5088889;28;20024;-65
2022/12/02 03:04:46;;;;;;;65.65;31.45;;;5.20;99.90;;;;;;5094238;28;20094;-65
2022/12/02 03:07:12;;;;;;;68.30;32.38;;;5.20;99.90;;;;;;5088422;28;20114;-65
2022/12/02 03:09:39;;;;;;;58.08;28.08;;;5.10;99.90;;;;;;5088882;28;20032;-65
2022/12/02 03:12:05;;;;;;;61.33;28.38;;;5.10;99.90;;;;;;5089338;28;20055;-65
2022/12/02 03:14:30;;;;;;;56.55;28.52;;;5.10;99.90;;;;;;5059334;28;20475;-66
2022/12/02 03:16:57;;;;;;;62.80;28.15;;;5.10;99.90;;;;;;5094549;28;20024;-65
2022/12/02 03:19:23;;;;;;;60.00;30.60;;;5.10;99.90;;;;;;5099122;28;20035;-65
2022/12/02 03:21:49;;;;;;;52.72;26.77;;;5.10;99.90;;;;;;5095488;28;20081;-65
2022/12/02 03:24:14;;;;;;;58.35;28.73;;;5.10;99.90;;;;;;5094406;28;20388;-65
2022/12/02 03:26:41;;;;;;;60.05;27.38;;;5.10;99.90;;;;;;5089066;28;20063;-65
2022/12/02 03:29:09;;;;;;;56.67;27.70;;;5.10;99.90;;;;;;5094359;28;20055;-65
2022/12/02 03:31:34;;;;;;;63.92;28.65;;;5.10;99.90;;;;;;5088635;28;20024;-65
2022/12/02 03:34:00;;;;;;;58.70;28.30;;;5.10;99.90;;;;;;5070414;28;20051;-65
2022/12/02 03:36:26;;;;;;;63.42;28.75;;;5.10;99.90;;;;;;5094217;28;20031;-65
2022/12/02 03:38:52;;;;;;;62.80;29.58;;;5.00;99.90;;;;;;5096986;28;20072;-65
2022/12/02 03:41:19;;;;;;;60.28;27.98;;;5.00;99.90;;;;;;5098519;28;20023;-66
2022/12/02 03:43:45;;;;;;;55.72;26.63;;;5.00;99.90;;;;;;5088802;28;20020;-65
2022/12/02 03:46:11;;;;;;;55.17;25.67;;;5.00;99.90;;;;;;5091224;28;20036;-65
2022/12/02 03:48:37;;;;;;;58.95;25.83;;;5.00;99.90;;;;;;5091692;28;20024;-65
2022/12/02 03:51:03;;;;;;;53.55;23.77;;;4.90;99.90;;;;;;5089626;28;20499;-65
2022/12/02 03:53:29;;;;;;;51.83;22.90;;;4.90;99.90;;;;;;5091157;28;20028;-66
2022/12/02 03:55:55;;;;;;;50.40;23.23;;;5.00;99.90;;;;;;5094810;28;20016;-65
2022/12/02 03:58:32;;;;;;;44.13;22.67;;;4.90;99.90;;;;;;5077269;28;20107;-65
2022/12/02 04:00:58;;;;;;;45.63;21.98;;;5.00;99.90;;;;;;5092253;28;20024;-66
2022/12/02 04:03:23;;;;;;;42.72;21.15;;;5.00;99.90;;;;;;5093181;28;20030;-66
2022/12/02 04:05:49;;;;;;;42.72;21.90;;;5.00;99.90;;;;;;5095036;28;20504;-66
2022/12/02 04:08:14;;;;;;;45.97;23.27;;;4.90;99.90;;;;;;5095042;28;20042;-65
2022/12/02 04:10:40;;;;;;;41.08;20.77;;;4.90;99.90;;;;;;5097860;28;20023;-65
2022/12/02 04:13:05;;;;;;;40.63;20.33;;;4.90;99.90;;;;;;5097842;27;20062;-65
2022/12/02 04:15:31;;;;;;;38.70;19.35;;;4.90;99.90;;;;;;5094671;28;20020;-65
2022/12/02 04:17:56;;;;;;;38.70;19.77;;;4.90;99.90;;;;;;5094708;28;20031;-65
2022/12/02 04:20:22;;;;;;;42.22;20.52;;;4.90;99.90;;;;;;5099183;28;20070;-65
2022/12/02 04:22:47;;;;;;;39.85;19.00;;;4.90;99.90;;;;;;5095669;28;20028;-65
2022/12/02 04:25:13;;;;;;;39.30;20.27;;;4.90;99.90;;;;;;5098036;28;20020;-65
2022/12/02 04:27:38;;;;;;;36.45;18.38;;;4.80;99.90;;;;;;5098102;27;20057;-66
2022/12/02 04:30:05;;;;;;;40.38;19.95;;;4.80;99.90;;;;;;5095990;28;20032;-65
2022/12/02 04:32:30;;;;;;;36.50;18.95;;;4.90;99.90;;;;;;5094090;28;20162;-65
2022/12/02 04:34:56;;;;;;;37.20;18.33;;;4.80;99.90;;;;;;5091648;28;20103;-65
2022/12/02 04:37:21;;;;;;;43.10;19.83;;;4.80;99.90;;;;;;5091681;28;20032;-65
2022/12/02 04:39:47;;;;;;;36.35;18.20;;;4.80;99.90;;;;;;5097358;28;20032;-65
2022/12/02 04:42:12;;;;;;;36.08;19.35;;;4.80;99.90;;;;;;5097354;28;20051;-65
2022/12/02 04:44:38;;;;;;;38.90;19.02;;;4.80;99.90;;;;;;5097073;28;20036;-65
2022/12/02 04:47:03;;;;;;;38.17;19.27;;;4.80;99.90;;;;;;5093280;28;20024;-65
2022/12/02 04:49:29;;;;;;;34.95;17.58;;;4.80;99.90;;;;;;5094981;28;20093;-65
2022/12/02 04:51:54;;;;;;;40.60;20.90;;;4.80;99.90;;;;;;5096625;28;20366;-65
2022/12/02 04:54:19;;;;;;;51.40;23.30;;;4.80;99.90;;;;;;5099332;28;20063;-65
2022/12/02 04:56:45;;;;;;;48.70;22.52;;;4.80;99.90;;;;;;5093951;28;20035;-65
2022/12/02 04:59:10;;;;;;;41.22;19.63;;;4.80;99.90;;;;;;5096666;28;20550;-65
2022/12/02 05:01:36;;;;;;;43.65;20.63;;;4.80;99.90;;;;;;5095185;28;20100;-65
2022/12/02 05:04:01;;;;;;;51.35;21.95;;;4.80;99.90;;;;;;5098208;28;20096;-65
2022/12/02 05:06:27;;;;;;;49.72;22.60;;;4.80;99.90;;;;;;5096530;28;20558;-65
2022/12/02 05:08:53;;;;;;;51.42;24.17;;;4.80;99.90;;;;;;5102069;27;20051;-65
2022/12/02 05:11:18;;;;;;;53.63;24.67;;;4.80;99.90;;;;;;5093820;28;20061;-65
2022/12/02 05:13:44;;;;;;;42.75;21.77;;;4.80;99.90;;;;;;5093023;27;20114;-65
2022/12/02 05:16:09;;;;;;;44.05;22.05;;;4.80;99.90;;;;;;5093411;28;20530;-65
2022/12/02 05:18:35;;;;;;;47.83;22.70;;;4.80;99.90;;;;;;5091533;28;20020;-65
2022/12/02 05:21:00;;;;;;;51.30;23.30;;;4.80;99.90;;;;;;5091985;27;20024;-65
2022/12/02 05:23:26;;;;;;;49.97;24.35;;;4.70;99.90;;;;;;5093737;28;20798;-65
2022/12/02 05:25:51;;;;;;;51.22;23.92;;;4.80;99.90;;;;;;5109934;27;20020;-65
2022/12/02 05:28:17;;;;;;;39.88;20.25;;;4.70;99.90;;;;;;5091565;28;20032;-65
2022/12/02 05:30:42;;;;;;;47.13;20.92;;;4.80;99.90;;;;;;5099877;28;20138;-65
2022/12/02 05:33:08;;;;;;;47.75;22.95;;;4.70;99.90;;;;;;5083898;28;20044;-65
2022/12/02 05:35:33;;;;;;;50.13;22.58;;;4.70;99.90;;;;;;5095288;28;20016;-65
2022/12/02 05:37:59;;;;;;;45.65;19.45;;;4.60;99.90;;;;;;5090598;28;20036;-65
2022/12/02 05:40:24;;;;;;;45.83;20.38;;;4.60;99.90;;;;;;5072242;28;20058;-65
2022/12/02 05:42:50;;;;;;;41.22;19.80;;;4.60;99.90;;;;;;5095863;28;20027;-65
2022/12/02 05:45:19;;;;;;;40.65;20.05;;;4.60;99.90;;;;;;5098308;28;20024;-65
2022/12/02 05:47:51;;;;;;;38.75;18.55;;;4.60;99.90;;;;;;5097899;28;20028;-65
2022/12/02 05:50:18;;;;;;;35.45;17.25;;;4.60;99.90;;;;;;5091330;28;20031;-65
2022/12/02 05:52:43;;;;;;;41.13;19.63;;;4.60;99.90;;;;;;5097311;28;20028;-65
2022/12/02 05:55:16;;;;;;;39.78;19.30;;;4.50;99.90;;;;;;5093695;28;20070;-66
2022/12/02 05:57:41;;;;;;;32.72;16.95;;;4.50;99.90;;;;;;5096534;28;20053;-65
2022/12/02 06:00:15;;;;;;;39.50;19.83;;;4.50;99.90;;;;;;5098167;28;20027;-65
2022/12/02 06:02:48;;;;;;;37.83;18.40;;;4.50;99.90;;;;;;5076777;28;20020;-65
2022/12/02 06:05:37;;;;;;;39.92;19.35;;;4.50;99.90;;;;;;5098453;28;20055;-65
2022/12/02 06:08:21;;;;;;;41.65;18.92;;;4.50;99.90;;;;;;5092802;28;20017;-65
2022/12/02 06:10:52;;;;;;;37.25;17.52;;;4.50;99.90;;;;;;5091131;28;20020;-65
2022/12/02 06:13:30;;;;;;;35.13;16.75;;;4.50;99.90;;;;;;5083103;28;20085;-65
2022/12/02 06:15:58;;;;;;;37.97;17.60;;;4.50;99.90;;;;;;5095597;28;20074;-65
2022/12/02 06:18:31;;;;;;;31.38;16.15;;;4.50;99.90;;;;;;5094910;28;20024;-65
2022/12/02 06:20:59;;;;;;;35.67;17.90;;;4.60;99.90;;;;;;5094540;28;20020;-66
2022/12/02 06:23:28;;;;;;;38.22;18.88;;;4.60;99.90;;;;;;5090438;28;20438;-65
2022/12/02 06:25:54;;;;;;;38.85;18.38;;;4.60;99.90;;;;;;5094963;28;20366;-65
2022/12/02 06:28:33;;;;;;;37.58;18.08;;;4.50;99.90;;;;;;5079756;28;20020;-65
2022/12/02 06:31:08;;;;;;;36.05;17.85;;;4.50;99.90;;;;;;5096855;28;20103;-65
2022/12/02 06:33:37;;;;;;;29.73;15.15;;;4.50;99.90;;;;;;5094862;28;20147;-65
2022/12/02 06:36:16;;;;;;;35.05;17.50;;;4.50;99.90;;;;;;5057484;28;20023;-65
2022/12/02 06:38:51;;;;;;;32.93;16.13;;;4.50;99.90;;;;;;5076653;28;20027;-65
2022/12/02 06:41:26;;;;;;;33.95;16.67;;;4.50;99.90;;;;;;5072398;28;20019;-65
2022/12/02 06:46:42;;;;;;;34.60;15.48;;;4.50;99.90;;;;;;5091719;28;20028;-65
2022/12/02 06:49:22;;;;;;;34.92;16.77;;;4.50;99.90;;;;;;5101702;28;20024;-64
2022/12/02 06:51:57;;;;;;;38.03;16.65;;;4.50;99.90;;;;;;5092742;28;20473;-64
2022/12/02 06:54:28;;;;;;;34.38;16.38;;;4.50;99.90;;;;;;5100365;28;20424;-64
2022/12/02 06:56:57;;;;;;;32.00;16.88;;;4.50;99.90;;;;;;5091559;28;20031;-64
2022/12/02 06:59:23;;;;;;;33.00;15.90;;;4.50;99.90;;;;;;5092365;28;20031;-64
2022/12/02 07:01:55;;;;;;;31.83;17.48;;;4.50;99.90;;;;;;5120431;27;20024;-64
2022/12/02 07:04:29;;;;;;;33.53;17.27;;;4.50;99.90;;;;;;5098038;28;20495;-64
2022/12/02 07:06:58;;;;;;;35.22;19.05;;;4.50;99.90;;;;;;5122989;27;20039;-64
2022/12/02 07:09:37;;;;;;;;;;;4.40;99.90;;;;;;5109854;28;20034;-64
2022/12/02 07:12:10;;;;;;;31.23;15.80;;;4.40;99.90;;;;;;5111030;28;19911;-64
2022/12/02 07:14:54;;;;;;;33.95;18.23;;;4.40;99.90;;;;;;5118762;27;20020;-64
2022/12/02 07:17:28;;;;;;;32.40;17.35;;;4.40;99.90;;;;;;5105119;28;20031;-64
2022/12/02 07:20:01;;;;;;;38.70;19.00;;;4.40;99.90;;;;;;5099685;28;20523;-64
2022/12/02 07:22:42;;;;;;;38.72;19.77;;;4.50;99.90;;;;;;5097411;28;20024;-64
2022/12/02 07:25:07;;;;;;;37.28;19.05;;;4.40;99.90;;;;;;5103005;28;20016;-64
2022/12/02 07:27:38;;;;;;;38.65;19.63;;;4.40;99.90;;;;;;5108315;28;20029;-65
2022/12/02 07:30:23;;;;;;;36.15;18.05;;;4.40;99.90;;;;;;5092884;28;20028;-64
2022/12/02 07:32:49;;;;;;;40.78;20.02;;;4.40;99.90;;;;;;5102676;28;20058;-64
2022/12/02 07:35:14;;;;;;;40.70;21.05;;;4.40;99.90;;;;;;5107410;28;20024;-64
2022/12/02 07:37:40;;;;;;;34.30;18.20;;;4.40;99.90;;;;;;5082255;28;20024;-64
2022/12/02 07:40:06;;;;;;;40.20;19.58;;;4.30;99.90;;;;;;5111683;28;20037;-64
2022/12/02 07:42:31;;;;;;;38.70;19.20;;;4.30;99.90;;;;;;5110394;28;20024;-64
2022/12/02 07:44:57;;;;;;;37.60;18.58;;;4.30;99.90;;;;;;5083495;28;20025;-64
2022/12/02 07:47:22;;;;;;;32.10;18.27;;;4.30;99.90;;;;;;5091587;28;20036;-64
2022/12/02 07:49:48;;;;;;;33.42;18.83;;;4.40;99.90;;;;;;5096326;28;20020;-64
2022/12/02 07:52:13;;;;;;;38.17;18.67;;;4.40;99.90;;;;;;5109561;28;20027;-64
2022/12/02 07:54:39;;;;;;;37.35;19.15;;;4.40;99.90;;;;;;5096051;28;20385;-64
2022/12/02 07:57:04;;;;;;;43.63;21.23;;;4.40;99.90;;;;;;5096008;28;20038;-65
2022/12/02 07:59:30;;;;;;;39.38;19.90;;;4.30;99.90;;;;;;5078061;28;20024;-64
2022/12/02 08:01:55;;;;;;;42.63;22.30;;;4.40;99.90;;;;;;5097216;27;20020;-65
2022/12/02 08:04:21;;;;;;;44.00;22.92;;;4.30;99.90;;;;;;5111722;27;20015;-64
2022/12/02 08:06:46;;;;;;;37.78;19.33;;;4.30;99.90;;;;;;5112071;28;20557;-64
2022/12/02 08:09:12;;;;;;;39.65;18.85;;;4.30;99.90;;;;;;5104166;28;20076;-65
2022/12/02 08:11:38;;;;;;;36.13;18.98;;;4.30;99.90;;;;;;5101950;28;20026;-65
2022/12/02 08:14:04;;;;;;;41.45;19.85;;;4.30;99.90;;;;;;5117279;27;20027;-64
2022/12/02 08:16:29;;;;;;;39.35;19.95;;;4.30;99.90;;;;;;5095595;28;20075;-64
2022/12/02 08:18:55;;;;;;;35.42;18.85;;;4.30;99.90;;;;;;5096964;27;20448;-64
2022/12/02 08:21:21;;;;;;;36.55;19.40;;;4.30;99.90;;;;;;5102234;28;20020;-64
2022/12/02 08:23:46;;;;;;;35.58;19.65;;;4.20;99.90;;;;;;5104339;28;20027;-64
2022/12/02 08:26:12;;;;;;;33.72;17.15;;;4.20;99.90;;;;;;5103875;28;20051;-64
2022/12/02 08:28:37;;;;;;;36.17;18.70;;;4.20;99.90;;;;;;5114525;28;20045;-64
2022/12/02 08:31:03;;;;;;;32.42;17.85;;;4.20;99.90;;;;;;5111352;28;20438;-64
2022/12/02 08:33:28;;;;;;;36.20;18.25;;;4.20;99.90;;;;;;5093393;28;20130;-64
2022/12/02 08:35:54;;;;;;;34.25;16.92;;;4.20;99.90;;;;;;5111148;28;20132;-64
2022/12/02 08:38:19;;;;;;;29.73;15.38;;;4.20;99.90;;;;;;5093612;28;20077;-64
2022/12/02 08:40:45;;;;;;;29.73;16.48;;;4.20;99.90;;;;;;5097960;28;20041;-64
2022/12/02 08:43:11;;;;;;;34.33;17.27;;;4.20;99.90;;;;;;5076703;28;20032;-64
2022/12/02 08:45:36;;;;;;;34.15;16.25;;;4.20;99.90;;;;;;5106121;28;20028;-64
2022/12/02 08:48:02;;;;;;;37.35;16.75;;;4.20;99.90;;;;;;5115297;28;20027;-64
2022/12/02 08:50:27;;;;;;;38.55;17.58;;;4.10;99.90;;;;;;5093567;28;20020;-64
2022/12/02 08:52:53;;;;;;;39.10;19.30;;;4.10;99.90;;;;;;5099099;28;20028;-64
2022/12/02 08:55:19;;;;;;;35.92;16.90;;;4.10;99.90;;;;;;5099505;28;20028;-64
2022/12/02 08:57:44;;;;;;;38.28;19.08;;;4.10;99.90;;;;;;5100318;28;20023;-64
2022/12/02 09:00:10;;;;;;;39.17;19.92;;;4.00;99.90;;;;;;5106575;28;20058;-64
2022/12/02 09:02:37;;;;;;;38.38;18.25;;;4.00;99.90;;;;;;5096409;28;20016;-64
2022/12/02 09:05:03;;;;;;;33.38;17.98;;;4.10;99.90;;;;;;5110594;28;20020;-64
2022/12/02 09:07:29;;;;;;;39.75;18.67;;;4.10;99.90;;;;;;5099429;28;20047;-64
2022/12/02 09:09:54;;;;;;;36.63;16.88;;;4.10;99.90;;;;;;5099640;28;20477;-63
2022/12/02 09:12:20;;;;;;;38.50;18.70;;;4.10;99.90;;;;;;5099783;28;20070;-64
2022/12/02 09:14:45;;;;;;;44.92;20.08;;;4.10;99.90;;;;;;5120601;27;20513;-64
2022/12/02 09:17:11;;;;;;;45.38;20.77;;;4.10;99.90;;;;;;5105302;28;20504;-64
2022/12/02 09:19:37;;;;;;;47.50;22.40;;;4.10;99.90;;;;;;5089515;28;20016;-64
2022/12/02 09:22:02;;;;;;;46.47;20.38;;;4.10;99.90;;;;;;5113213;28;20054;-64
2022/12/02 09:24:28;;;;;;;44.38;20.75;;;4.10;99.90;;;;;;5109390;28;20488;-63
2022/12/02 09:26:53;;;;;;;47.75;21.05;;;4.10;99.90;;;;;;5094143;28;20093;-63
2022/12/02 09:29:19;;;;;;;43.85;20.25;;;4.10;99.90;;;;;;5109998;28;20031;-64
2022/12/02 09:31:44;;;;;;;54.63;24.25;;;4.10;99.90;;;;;;5102613;28;20028;-63
2022/12/02 09:34:10;;;;;;;46.88;20.65;;;4.10;99.90;;;;;;5093705;28;20051;-63
2022/12/02 09:36:35;;;;;;;50.15;21.75;;;4.10;99.90;;;;;;5099680;28;20493;-64
2022/12/02 09:39:01;;;;;;;44.95;21.73;;;4.10;99.90;;;;;;5108248;27;20020;-64
2022/12/02 09:41:27;;;;;;;46.30;21.25;;;4.10;99.90;;;;;;5102058;28;20489;-64
2022/12/02 09:43:53;;;;;;;46.17;21.30;;;4.10;99.90;;;;;;5107013;28;20031;-64
2022/12/02 09:46:18;;;;;;;44.28;20.52;;;4.10;99.90;;;;;;5107467;28;20032;-64
2022/12/02 09:48:44;;;;;;;39.80;19.85;;;4.10;99.90;;;;;;5105315;28;20031;-64
2022/12/02 09:51:10;;;;;;;52.92;22.90;;;4.20;99.90;;;;;;5095611;28;20538;-64
2022/12/02 09:53:38;;;;;;;51.15;23.17;;;4.20;99.90;;;;;;5093421;28;20393;-64
2022/12/02 09:56:09;;;;;;;52.42;23.08;;;4.20;99.90;;;;;;5106451;28;20020;-64
2022/12/02 09:58:37;;;;;;;43.67;20.27;;;4.20;99.90;;;;;;5105276;28;20102;-64
2022/12/02 10:01:09;;;;;;;51.10;21.92;;;4.20;99.90;;;;;;5099910;28;20511;-64
2022/12/02 10:03:34;;;;;;;50.60;22.42;;;4.30;99.90;;;;;;5111978;28;20015;-64
2022/12/02 10:06:05;;;;;;;47.17;21.60;;;4.20;99.90;;;;;;5100938;28;20392;-63
2022/12/02 10:08:31;;;;;;;46.40;21.45;;;4.30;99.90;;;;;;5099630;28;20111;-64
2022/12/02 10:10:58;;;;;;;48.15;20.42;;;4.30;99.90;;;;;;5104779;28;20028;-63
2022/12/02 10:13:24;;;;;;;52.70;22.83;;;4.30;99.90;;;;;;5109440;27;20042;-63
2022/12/02 10:15:51;;;;;;;51.38;23.95;;;4.30;99.90;;;;;;5093198;28;20024;-63
2022/12/02 10:18:26;;;;;;;55.00;22.55;;;4.40;99.90;;;;;;5087894;28;20405;-64
2022/12/02 10:20:51;;;;;;;46.10;21.42;;;4.40;99.90;;;;;;5097339;28;20378;-64
2022/12/02 10:23:24;;;;;;;48.05;22.67;;;4.40;99.90;;;;;;5093453;28;20016;-63
2022/12/02 10:26:08;;;;;;;52.63;21.25;;;4.40;99.90;;;;;;5097269;28;20488;-64
2022/12/02 10:28:36;;;;;;;57.45;22.17;;;4.40;99.90;;;;;;5074781;28;20020;-63
2022/12/02 10:31:08;;;;;;;52.95;23.85;;;4.40;99.90;;;;;;5097194;27;20035;-63
2022/12/02 10:33:38;;;;;;;42.08;19.60;;;4.40;99.90;;;;;;5109661;28;20043;-63
2022/12/02 10:36:04;;;;;;;44.00;20.65;;;4.40;99.90;;;;;;5095927;28;20475;-64
2022/12/02 10:38:39;;;;;;;49.13;22.02;;;4.50;99.90;;;;;;5092934;28;20127;-63
2022/12/02 10:41:14;;;;;;;44.92;21.95;;;4.50;99.90;;;;;;5095828;28;20016;-64
2022/12/02 10:43:52;;;;;;;42.53;20.02;;;4.50;99.90;;;;;;5100350;28;20046;-64
2022/12/02 10:46:21;;;;;;;48.08;20.73;;;4.50;99.90;;;;;;5105822;28;20024;-63
2022/12/02 10:48:48;;;;;;;50.75;23.02;;;4.50;99.90;;;;;;5092502;28;20107;-64
2022/12/02 10:51:16;;;;;;;46.92;21.00;;;4.50;99.90;;;;;;5097336;28;20022;-65
2022/12/02 10:53:44;;;;;;;50.17;22.20;;;4.50;99.90;;;;;;5098930;28;20025;-64
2022/12/02 10:56:23;;;;;;;45.70;22.88;;;4.50;99.90;;;;;;5093132;28;20016;-64
2022/12/02 10:58:50;;;;;;;44.63;20.65;;;4.50;99.90;;;;;;5093442;28;20073;-63
2022/12/02 11:01:19;;;;;;;45.53;21.13;;;4.50;99.90;;;;;;5101603;28;20031;-63
2022/12/02 11:03:45;;;;;;;42.70;19.38;;;4.50;99.90;;;;;;5097264;28;20012;-64
2022/12/02 11:06:14;;;;;;;41.20;19.80;;;4.40;99.90;;;;;;5092529;28;20020;-64
2022/12/02 11:08:46;;;;;;;43.97;20.08;;;4.50;99.90;;;;;;5094753;28;20024;-64
2022/12/02 11:11:23;;;;;;;55.45;23.83;;;4.60;99.90;;;;;;5098869;28;20103;-64
2022/12/02 11:13:55;;;;;;;43.35;19.85;;;4.50;99.90;;;;;;5101225;27;20026;-64
2022/12/02 11:16:26;;;;;;;46.47;21.13;;;4.50;99.90;;;;;;5100644;28;20032;-64
2022/12/02 11:19:33;;;;;;;46.78;20.95;;;4.50;99.90;;;;;;5099837;28;20024;-64
2022/12/02 11:21:58;;;;;;;46.55;20.63;;;4.50;99.90;;;;;;5072001;28;20039;-63
2022/12/02 11:24:27;;;;;;;43.38;19.48;;;4.50;99.90;;;;;;5098929;28;20380;-64
2022/12/02 11:26:58;;;;;;;44.42;19.92;;;4.50;99.90;;;;;;5098972;28;20028;-63
2022/12/02 11:29:24;;;;;;;42.08;19.40;;;4.60;99.90;;;;;;5092018;28;20024;-64
2022/12/02 11:32:00;;;;;;;43.13;19.60;;;4.60;99.90;;;;;;5099051;28;20397;-63
2022/12/02 11:34:39;;;;;;;46.90;19.13;;;4.60;99.90;;;;;;5092768;28;20123;-64
2022/12/02 11:37:33;;;;;;;43.58;20.23;;;4.70;99.90;;;;;;5096193;28;20028;-63
2022/12/02 11:40:01;;;;;;;55.42;21.98;;;4.70;99.90;;;;;;5109139;28;20107;-64
2022/12/02 11:42:31;;;;;;;54.80;23.88;;;4.60;99.90;;;;;;5108762;28;20544;-63
2022/12/02 11:45:15;;;;;;;57.90;22.20;;;4.60;99.90;;;;;;5108791;28;20485;-65
2022/12/02 11:48:00;;;;;;;50.45;21.17;;;4.60;99.90;;;;;;5105917;28;20081;-65
2022/12/02 11:50:28;;;;;;;54.13;22.58;;;4.60;99.90;;;;;;5112068;28;20027;-65
2022/12/02 11:53:00;;;;;;;44.70;19.55;;;4.50;99.90;;;;;;5079983;28;20038;-65
2022/12/02 11:55:35;;;;;;;54.35;20.55;;;4.50;99.90;;;;;;5111828;28;20028;-65
2022/12/02 11:58:02;;;;;;;51.08;20.05;;;4.50;99.90;;;;;;5092120;28;20492;-65
2022/12/02 12:00:31;;;;;;;54.20;21.92;;;4.50;99.90;;;;;;5091214;28;20043;-65
2022/12/02 12:03:11;;;;;;;51.33;21.27;;;4.50;99.90;;;;;;5077631;28;20080;-65
2022/12/02 12:05:38;;;;;;;45.75;19.52;;;4.50;99.90;;;;;;5098162;28;20119;-65
2022/12/02 12:08:03;;;;;;;53.55;21.58;;;4.40;99.90;;;;;;5107558;28;20540;-65
2022/12/02 12:10:38;;;;;;;52.15;22.67;;;4.40;99.90;;;;;;5107865;28;20107;-65
2022/12/02 12:13:22;;;;;;;52.38;21.35;;;4.40;99.90;;;;;;5109164;28;20023;-65
2022/12/02 12:16:00;;;;;;;53.22;21.73;;;4.40;99.90;;;;;;5108103;28;20023;-65
2022/12/02 12:18:45;;;;;;;57.30;22.20;;;4.40;99.90;;;;;;5107011;28;20027;-65
2022/12/02 12:21:12;;;;;;;51.25;19.83;;;4.40;99.90;;;;;;5105605;28;20024;-65
2022/12/02 12:23:43;;;;;;;56.00;21.92;;;4.40;99.90;;;;;;5095137;28;20020;-64
2022/12/02 12:26:30;;;;;;;55.83;21.55;;;4.50;99.90;;;;;;5102191;28;20421;-65
2022/12/02 12:29:00;;;;;;;53.78;22.33;;;4.60;99.90;;;;;;5105612;28;20473;-65
2022/12/02 12:31:26;;;;;;;48.03;19.48;;;4.60;99.90;;;;;;5100966;28;20034;-64
2022/12/02 12:33:52;;;;;;;46.10;19.02;;;4.60;99.90;;;;;;5095166;28;20048;-65
2022/12/02 12:36:17;;;;;;;43.92;17.15;;;4.70;99.90;;;;;;5113987;28;20020;-65
2022/12/02 12:38:43;;;;;;;51.03;18.75;;;4.70;99.90;;;;;;5111282;28;20027;-65
2022/12/02 12:41:08;;;;;;;55.08;21.65;;;4.80;99.90;;;;;;5102794;28;20019;-65
2022/12/02 12:43:34;;;;;;;49.55;19.35;;;4.80;99.90;;;;;;5103268;27;20449;-65
2022/12/02 12:45:59;;;;;;;48.83;18.48;;;4.80;99.90;;;;;;5111887;28;20028;-65
2022/12/02 12:48:25;;;;;;;44.55;18.52;;;4.90;99.90;;;;;;5104656;28;20043;-65